sensor_id;sensor_type;location;lat;lon;timestamp;P1;durP1;ratioP1;P2;durP2;ratioP2
8094;SDS011;4090;49.270;8.696;2024-02-21T00:02:22;7.35;;;4.07;;
8094;SDS011;4090;49.270;8.696;2024-02-21T00:05:04;16.05;;;4.72;;
8094;SDS011;4090;49.270;8.696;2024-02-21T00:07:46;14.93;;;5.15;;
8094;SDS011;4090;49.270;8.696;2024-02-21T00:10:29;13.07;;;4.32;;
8094;SDS011;4090;49.270;8.696;2024-02-21T00:13:12;11.15;;;4.40;;
8094;SDS011;4090;49.270;8.696;2024-02-21T00:15:54;17.08;;;4.57;;
8094;SDS011;4090;49.270;8.696;2024-02-21T00:18:36;13.93;;;4.35;;
8094;SDS011;4090;49.270;8.696;2024-02-21T00:21:18;10.80;;;4.20;;
8094;SDS011;4090;49.270;8.696;2024-02-21T00:24:00;14.98;;;4.78;;
8094;SDS011;4090;49.270;8.696;2024-02-21T00:26:43;14.25;;;4.45;;
8094;SDS011;4090;49.270;8.696;2024-02-21T00:29:25;12.23;;;4.70;;
8094;SDS011;4090;49.270;8.696;2024-02-21T00:32:07;12.57;;;4.55;;
8094;SDS011;4090;49.270;8.696;2024-02-21T00:34:49;13.45;;;4.47;;
8094;SDS011;4090;49.270;8.696;2024-02-21T00:37:31;15.82;;;4.30;;
8094;SDS011;4090;49.270;8.696;2024-02-21T00:40:13;14.15;;;4.63;;
8094;SDS011;4090;49.270;8.696;2024-02-21T00:43:01;12.68;;;4.28;;
8094;SDS011;4090;49.270;8.696;2024-02-21T00:45:43;10.25;;;4.55;;
8094;SDS011;4090;49.270;8.696;2024-02-21T00:48:25;16.15;;;4.65;;
8094;SDS011;4090;49.270;8.696;2024-02-21T00:51:07;10.32;;;4.35;;
8094;SDS011;4090;49.270;8.696;2024-02-21T00:53:48;12.38;;;4.38;;
8094;SDS011;4090;49.270;8.696;2024-02-21T00:56:30;12.13;;;4.32;;
8094;SDS011;4090;49.270;8.696;2024-02-21T00:59:14;10.07;;;4.18;;
8094;SDS011;4090;49.270;8.696;2024-02-21T01:01:56;13.98;;;4.45;;
8094;SDS011;4090;49.270;8.696;2024-02-21T01:04:38;10.88;;;4.22;;
8094;SDS011;4090;49.270;8.696;2024-02-21T01:07:20;12.10;;;4.35;;
8094;SDS011;4090;49.270;8.696;2024-02-21T01:10:02;10.95;;;4.25;;
8094;SDS011;4090;49.270;8.696;2024-02-21T01:12:44;13.70;;;4.50;;
8094;SDS011;4090;49.270;8.696;2024-02-21T01:15:27;16.08;;;4.38;;
8094;SDS011;4090;49.270;8.696;2024-02-21T01:18:09;13.68;;;4.63;;
8094;SDS011;4090;49.270;8.696;2024-02-21T01:20:51;9.55;;;4.28;;
8094;SDS011;4090;49.270;8.696;2024-02-21T01:23:32;12.23;;;4.28;;
8094;SDS011;4090;49.270;8.696;2024-02-21T01:26:14;12.20;;;4.38;;
8094;SDS011;4090;49.270;8.696;2024-02-21T01:28:56;11.45;;;4.13;;
8094;SDS011;4090;49.270;8.696;2024-02-21T01:31:39;10.63;;;3.67;;
8094;SDS011;4090;49.270;8.696;2024-02-21T01:34:21;13.40;;;4.10;;
8094;SDS011;4090;49.270;8.696;2024-02-21T01:37:03;14.15;;;4.22;;
8094;SDS011;4090;49.270;8.696;2024-02-21T01:39:47;10.75;;;4.22;;
8094;SDS011;4090;49.270;8.696;2024-02-21T01:42:29;13.15;;;4.10;;
8094;SDS011;4090;49.270;8.696;2024-02-21T01:45:11;13.55;;;3.92;;
8094;SDS011;4090;49.270;8.696;2024-02-21T01:47:54;10.98;;;4.25;;
8094;SDS011;4090;49.270;8.696;2024-02-21T01:50:36;14.88;;;4.28;;
8094;SDS011;4090;49.270;8.696;2024-02-21T01:53:18;9.93;;;4.25;;
8094;SDS011;4090;49.270;8.696;2024-02-21T01:56:02;9.93;;;4.13;;
8094;SDS011;4090;49.270;8.696;2024-02-21T01:58:45;8.32;;;3.70;;
8094;SDS011;4090;49.270;8.696;2024-02-21T02:01:29;14.52;;;4.40;;
8094;SDS011;4090;49.270;8.696;2024-02-21T02:04:12;11.50;;;4.30;;
8094;SDS011;4090;49.270;8.696;2024-02-21T02:06:55;11.77;;;4.28;;
8094;SDS011;4090;49.270;8.696;2024-02-21T02:09:37;12.60;;;4.30;;
8094;SDS011;4090;49.270;8.696;2024-02-21T02:12:18;11.38;;;4.00;;
8094;SDS011;4090;49.270;8.696;2024-02-21T02:15:01;14.95;;;4.68;;
8094;SDS011;4090;49.270;8.696;2024-02-21T02:17:45;9.35;;;3.83;;
8094;SDS011;4090;49.270;8.696;2024-02-21T02:20:28;13.07;;;3.80;;
8094;SDS011;4090;49.270;8.696;2024-02-21T02:23:10;12.77;;;4.05;;
8094;SDS011;4090;49.270;8.696;2024-02-21T02:25:55;11.75;;;3.75;;
8094;SDS011;4090;49.270;8.696;2024-02-21T02:28:38;13.05;;;4.40;;
8094;SDS011;4090;49.270;8.696;2024-02-21T02:31:20;10.18;;;3.83;;
8094;SDS011;4090;49.270;8.696;2024-02-21T02:34:02;11.40;;;3.80;;
8094;SDS011;4090;49.270;8.696;2024-02-21T02:36:44;9.25;;;3.47;;
8094;SDS011;4090;49.270;8.696;2024-02-21T02:39:28;10.25;;;4.40;;
8094;SDS011;4090;49.270;8.696;2024-02-21T02:42:12;9.02;;;3.90;;
8094;SDS011;4090;49.270;8.696;2024-02-21T02:44:53;10.88;;;3.80;;
8094;SDS011;4090;49.270;8.696;2024-02-21T02:47:38;10.98;;;4.32;;
8094;SDS011;4090;49.270;8.696;2024-02-21T02:50:21;14.80;;;3.75;;
8094;SDS011;4090;49.270;8.696;2024-02-21T02:53:03;11.52;;;3.88;;
8094;SDS011;4090;49.270;8.696;2024-02-21T02:55:45;11.32;;;3.67;;
8094;SDS011;4090;49.270;8.696;2024-02-21T02:58:28;7.60;;;3.80;;
8094;SDS011;4090;49.270;8.696;2024-02-21T03:01:10;9.80;;;3.58;;
8094;SDS011;4090;49.270;8.696;2024-02-21T03:03:52;9.57;;;3.55;;
8094;SDS011;4090;49.270;8.696;2024-02-21T03:06:33;10.85;;;3.38;;
8094;SDS011;4090;49.270;8.696;2024-02-21T03:09:16;14.18;;;3.85;;
8094;SDS011;4090;49.270;8.696;2024-02-21T03:11:58;10.40;;;3.40;;
8094;SDS011;4090;49.270;8.696;2024-02-21T03:14:44;11.40;;;3.75;;
8094;SDS011;4090;49.270;8.696;2024-02-21T03:17:26;8.75;;;3.42;;
8094;SDS011;4090;49.270;8.696;2024-02-21T03:20:09;9.98;;;3.30;;
8094;SDS011;4090;49.270;8.696;2024-02-21T03:22:52;11.38;;;3.15;;
8094;SDS011;4090;49.270;8.696;2024-02-21T03:25:33;10.25;;;3.13;;
8094;SDS011;4090;49.270;8.696;2024-02-21T03:28:16;11.30;;;3.72;;
8094;SDS011;4090;49.270;8.696;2024-02-21T03:30:59;8.75;;;3.00;;
8094;SDS011;4090;49.270;8.696;2024-02-21T03:33:41;9.55;;;3.22;;
8094;SDS011;4090;49.270;8.696;2024-02-21T03:36:25;12.27;;;3.40;;
8094;SDS011;4090;49.270;8.696;2024-02-21T03:39:07;8.02;;;3.40;;
8094;SDS011;4090;49.270;8.696;2024-02-21T03:41:49;6.32;;;3.13;;
8094;SDS011;4090;49.270;8.696;2024-02-21T03:44:31;7.95;;;3.70;;
8094;SDS011;4090;49.270;8.696;2024-02-21T03:47:15;8.40;;;3.28;;
8094;SDS011;4090;49.270;8.696;2024-02-21T03:49:56;12.95;;;3.42;;
8094;SDS011;4090;49.270;8.696;2024-02-21T03:52:40;8.52;;;3.25;;
8094;SDS011;4090;49.270;8.696;2024-02-21T03:55:21;7.47;;;3.50;;
8094;SDS011;4090;49.270;8.696;2024-02-21T03:58:04;12.75;;;3.65;;
8094;SDS011;4090;49.270;8.696;2024-02-21T04:00:45;10.77;;;3.35;;
8094;SDS011;4090;49.270;8.696;2024-02-21T04:03:29;7.88;;;3.03;;
8094;SDS011;4090;49.270;8.696;2024-02-21T04:06:11;6.97;;;3.00;;
8094;SDS011;4090;49.270;8.696;2024-02-21T04:08:53;8.18;;;3.22;;
8094;SDS011;4090;49.270;8.696;2024-02-21T04:11:35;6.45;;;3.05;;
8094;SDS011;4090;49.270;8.696;2024-02-21T04:14:17;9.88;;;3.20;;
8094;SDS011;4090;49.270;8.696;2024-02-21T04:16:59;10.10;;;3.65;;
8094;SDS011;4090;49.270;8.696;2024-02-21T04:19:42;11.43;;;3.30;;
8094;SDS011;4090;49.270;8.696;2024-02-21T04:22:24;8.02;;;3.17;;
8094;SDS011;4090;49.270;8.696;2024-02-21T04:25:06;8.77;;;3.85;;
8094;SDS011;4090;49.270;8.696;2024-02-21T04:27:48;9.82;;;3.38;;
8094;SDS011;4090;49.270;8.696;2024-02-21T04:30:30;9.82;;;3.42;;
8094;SDS011;4090;49.270;8.696;2024-02-21T04:33:12;8.75;;;3.17;;
8094;SDS011;4090;49.270;8.696;2024-02-21T04:35:55;12.85;;;3.90;;
8094;SDS011;4090;49.270;8.696;2024-02-21T04:38:39;8.57;;;3.25;;
8094;SDS011;4090;49.270;8.696;2024-02-21T04:41:21;8.15;;;3.00;;
8094;SDS011;4090;49.270;8.696;2024-02-21T04:44:03;10.60;;;3.17;;
8094;SDS011;4090;49.270;8.696;2024-02-21T04:46:45;8.20;;;3.17;;
8094;SDS011;4090;49.270;8.696;2024-02-21T04:49:27;10.07;;;3.10;;
8094;SDS011;4090;49.270;8.696;2024-02-21T04:52:10;7.70;;;3.17;;
8094;SDS011;4090;49.270;8.696;2024-02-21T04:54:52;11.40;;;3.53;;
8094;SDS011;4090;49.270;8.696;2024-02-21T04:57:34;9.55;;;3.28;;
8094;SDS011;4090;49.270;8.696;2024-02-21T05:00:16;11.57;;;3.50;;
8094;SDS011;4090;49.270;8.696;2024-02-21T05:02:58;7.25;;;3.25;;
8094;SDS011;4090;49.270;8.696;2024-02-21T05:05:40;10.20;;;3.35;;
8094;SDS011;4090;49.270;8.696;2024-02-21T05:08:23;9.63;;;3.28;;
8094;SDS011;4090;49.270;8.696;2024-02-21T05:11:05;9.43;;;3.25;;
8094;SDS011;4090;49.270;8.696;2024-02-21T05:13:47;8.25;;;3.17;;
8094;SDS011;4090;49.270;8.696;2024-02-21T05:16:29;6.57;;;3.05;;
8094;SDS011;4090;49.270;8.696;2024-02-21T05:19:11;9.93;;;3.25;;
8094;SDS011;4090;49.270;8.696;2024-02-21T05:21:53;11.07;;;3.33;;
8094;SDS011;4090;49.270;8.696;2024-02-21T05:24:38;10.82;;;3.17;;
8094;SDS011;4090;49.270;8.696;2024-02-21T05:27:20;8.38;;;3.10;;
8094;SDS011;4090;49.270;8.696;2024-02-21T05:30:02;10.18;;;3.50;;
8094;SDS011;4090;49.270;8.696;2024-02-21T05:32:46;11.13;;;3.25;;
8094;SDS011;4090;49.270;8.696;2024-02-21T05:35:28;8.32;;;3.75;;
8094;SDS011;4090;49.270;8.696;2024-02-21T05:38:10;9.30;;;3.08;;
8094;SDS011;4090;49.270;8.696;2024-02-21T05:40:53;8.02;;;3.50;;
8094;SDS011;4090;49.270;8.696;2024-02-21T05:43:35;7.82;;;3.25;;
8094;SDS011;4090;49.270;8.696;2024-02-21T05:46:18;7.97;;;3.25;;
8094;SDS011;4090;49.270;8.696;2024-02-21T05:49:00;7.30;;;2.97;;
8094;SDS011;4090;49.270;8.696;2024-02-21T05:51:42;6.53;;;3.25;;
8094;SDS011;4090;49.270;8.696;2024-02-21T05:54:24;6.97;;;3.08;;
8094;SDS011;4090;49.270;8.696;2024-02-21T05:57:08;8.55;;;3.30;;
8094;SDS011;4090;49.270;8.696;2024-02-21T05:59:50;9.50;;;3.10;;
8094;SDS011;4090;49.270;8.696;2024-02-21T06:02:32;10.30;;;3.20;;
8094;SDS011;4090;49.270;8.696;2024-02-21T06:05:14;6.88;;;2.90;;
8094;SDS011;4090;49.270;8.696;2024-02-21T06:07:55;7.38;;;3.25;;
8094;SDS011;4090;49.270;8.696;2024-02-21T06:10:37;12.02;;;4.00;;
8094;SDS011;4090;49.270;8.696;2024-02-21T06:13:21;15.98;;;3.25;;
8094;SDS011;4090;49.270;8.696;2024-02-21T06:16:04;12.55;;;2.97;;
8094;SDS011;4090;49.270;8.696;2024-02-21T06:18:46;9.38;;;3.08;;
8094;SDS011;4090;49.270;8.696;2024-02-21T06:21:29;10.70;;;3.10;;
8094;SDS011;4090;49.270;8.696;2024-02-21T06:24:11;9.10;;;2.85;;
8094;SDS011;4090;49.270;8.696;2024-02-21T06:26:53;7.18;;;3.15;;
8094;SDS011;4090;49.270;8.696;2024-02-21T06:29:36;11.13;;;3.15;;
8094;SDS011;4090;49.270;8.696;2024-02-21T06:32:18;7.10;;;2.92;;
8094;SDS011;4090;49.270;8.696;2024-02-21T06:35:00;6.57;;;2.88;;
8094;SDS011;4090;49.270;8.696;2024-02-21T06:37:42;6.72;;;2.88;;
8094;SDS011;4090;49.270;8.696;2024-02-21T06:40:25;9.57;;;3.08;;
8094;SDS011;4090;49.270;8.696;2024-02-21T06:43:07;13.35;;;3.25;;
8094;SDS011;4090;49.270;8.696;2024-02-21T06:45:50;11.43;;;3.05;;
8094;SDS011;4090;49.270;8.696;2024-02-21T06:48:33;9.02;;;2.67;;
8094;SDS011;4090;49.270;8.696;2024-02-21T06:51:15;8.63;;;3.42;;
8094;SDS011;4090;49.270;8.696;2024-02-21T06:53:57;10.50;;;3.63;;
8094;SDS011;4090;49.270;8.696;2024-02-21T06:56:39;7.88;;;3.33;;
8094;SDS011;4090;49.270;8.696;2024-02-21T06:59:22;8.48;;;2.83;;
8094;SDS011;4090;49.270;8.696;2024-02-21T07:02:05;8.57;;;3.17;;
8094;SDS011;4090;49.270;8.696;2024-02-21T07:04:47;7.90;;;3.53;;
8094;SDS011;4090;49.270;8.696;2024-02-21T07:07:29;11.20;;;3.20;;
8094;SDS011;4090;49.270;8.696;2024-02-21T07:10:10;7.68;;;3.15;;
8094;SDS011;4090;49.270;8.696;2024-02-21T07:12:52;8.75;;;3.13;;
8094;SDS011;4090;49.270;8.696;2024-02-21T07:15:34;6.40;;;2.90;;
8094;SDS011;4090;49.270;8.696;2024-02-21T07:18:17;11.05;;;3.40;;
8094;SDS011;4090;49.270;8.696;2024-02-21T07:21:00;9.00;;;3.38;;
8094;SDS011;4090;49.270;8.696;2024-02-21T07:23:41;12.75;;;3.78;;
8094;SDS011;4090;49.270;8.696;2024-02-21T07:26:23;14.52;;;3.58;;
8094;SDS011;4090;49.270;8.696;2024-02-21T07:29:05;8.57;;;3.40;;
8094;SDS011;4090;49.270;8.696;2024-02-21T07:31:48;11.40;;;3.45;;
8094;SDS011;4090;49.270;8.696;2024-02-21T07:34:33;13.15;;;3.72;;
8094;SDS011;4090;49.270;8.696;2024-02-21T07:37:15;9.60;;;3.35;;
8094;SDS011;4090;49.270;8.696;2024-02-21T07:39:57;13.65;;;3.53;;
8094;SDS011;4090;49.270;8.696;2024-02-21T07:42:38;10.93;;;3.40;;
8094;SDS011;4090;49.270;8.696;2024-02-21T07:45:20;7.25;;;2.97;;
8094;SDS011;4090;49.270;8.696;2024-02-21T07:48:04;9.98;;;3.38;;
8094;SDS011;4090;49.270;8.696;2024-02-21T07:50:48;10.30;;;3.50;;
8094;SDS011;4090;49.270;8.696;2024-02-21T07:53:30;7.03;;;3.53;;
8094;SDS011;4090;49.270;8.696;2024-02-21T07:56:12;9.73;;;3.47;;
8094;SDS011;4090;49.270;8.696;2024-02-21T07:58:55;11.50;;;3.60;;
8094;SDS011;4090;49.270;8.696;2024-02-21T08:01:37;10.52;;;3.92;;
8094;SDS011;4090;49.270;8.696;2024-02-21T08:04:18;10.18;;;3.78;;
8094;SDS011;4090;49.270;8.696;2024-02-21T08:07:02;9.13;;;3.30;;
8094;SDS011;4090;49.270;8.696;2024-02-21T08:09:44;9.30;;;3.40;;
8094;SDS011;4090;49.270;8.696;2024-02-21T08:12:26;11.48;;;3.85;;
8094;SDS011;4090;49.270;8.696;2024-02-21T08:15:08;6.97;;;3.40;;
8094;SDS011;4090;49.270;8.696;2024-02-21T08:17:51;9.20;;;3.45;;
8094;SDS011;4090;49.270;8.696;2024-02-21T08:20:32;10.20;;;3.70;;
8094;SDS011;4090;49.270;8.696;2024-02-21T08:23:18;7.30;;;3.53;;
8094;SDS011;4090;49.270;8.696;2024-02-21T08:26:02;16.15;;;3.53;;
8094;SDS011;4090;49.270;8.696;2024-02-21T08:28:44;10.73;;;4.25;;
8094;SDS011;4090;49.270;8.696;2024-02-21T08:31:26;8.57;;;3.53;;
8094;SDS011;4090;49.270;8.696;2024-02-21T08:34:11;7.57;;;3.40;;
8094;SDS011;4090;49.270;8.696;2024-02-21T08:36:53;8.80;;;3.60;;
8094;SDS011;4090;49.270;8.696;2024-02-21T08:39:36;7.30;;;3.10;;
8094;SDS011;4090;49.270;8.696;2024-02-21T08:42:18;9.82;;;3.35;;
8094;SDS011;4090;49.270;8.696;2024-02-21T08:45:00;10.77;;;3.15;;
8094;SDS011;4090;49.270;8.696;2024-02-21T08:47:42;9.90;;;3.10;;
8094;SDS011;4090;49.270;8.696;2024-02-21T08:50:24;11.60;;;3.58;;
8094;SDS011;4090;49.270;8.696;2024-02-21T08:53:06;11.48;;;3.20;;
8094;SDS011;4090;49.270;8.696;2024-02-21T08:55:50;10.55;;;3.80;;
8094;SDS011;4090;49.270;8.696;2024-02-21T08:58:31;8.60;;;3.22;;
8094;SDS011;4090;49.270;8.696;2024-02-21T09:01:13;12.23;;;4.00;;
8094;SDS011;4090;49.270;8.696;2024-02-21T09:03:55;10.93;;;3.22;;
8094;SDS011;4090;49.270;8.696;2024-02-21T09:06:37;11.70;;;3.33;;
8094;SDS011;4090;49.270;8.696;2024-02-21T09:09:22;8.23;;;3.17;;
8094;SDS011;4090;49.270;8.696;2024-02-21T09:12:05;9.30;;;3.67;;
8094;SDS011;4090;49.270;8.696;2024-02-21T09:14:48;14.90;;;3.50;;
8094;SDS011;4090;49.270;8.696;2024-02-21T09:17:30;5.65;;;3.50;;
8094;SDS011;4090;49.270;8.696;2024-02-21T09:20:12;7.95;;;3.30;;
8094;SDS011;4090;49.270;8.696;2024-02-21T09:22:56;7.57;;;3.25;;
8094;SDS011;4090;49.270;8.696;2024-02-21T09:25:38;5.82;;;3.08;;
8094;SDS011;4090;49.270;8.696;2024-02-21T09:28:22;9.30;;;3.63;;
8094;SDS011;4090;49.270;8.696;2024-02-21T09:31:04;10.07;;;3.15;;
8094;SDS011;4090;49.270;8.696;2024-02-21T09:33:46;9.00;;;3.58;;
8094;SDS011;4090;49.270;8.696;2024-02-21T09:36:28;11.00;;;3.60;;
8094;SDS011;4090;49.270;8.696;2024-02-21T09:39:10;6.18;;;2.88;;
8094;SDS011;4090;49.270;8.696;2024-02-21T09:41:56;12.80;;;3.80;;
8094;SDS011;4090;49.270;8.696;2024-02-21T09:44:44;12.02;;;3.70;;
8094;SDS011;4090;49.270;8.696;2024-02-21T09:47:29;8.95;;;2.95;;
8094;SDS011;4090;49.270;8.696;2024-02-21T09:50:20;8.13;;;3.47;;
8094;SDS011;4090;49.270;8.696;2024-02-21T09:53:04;13.38;;;3.25;;
8094;SDS011;4090;49.270;8.696;2024-02-21T09:55:47;7.72;;;2.65;;
8094;SDS011;4090;49.270;8.696;2024-02-21T09:58:30;11.63;;;2.92;;
8094;SDS011;4090;49.270;8.696;2024-02-21T10:01:13;6.70;;;2.80;;
8094;SDS011;4090;49.270;8.696;2024-02-21T10:03:56;9.35;;;3.28;;
8094;SDS011;4090;49.270;8.696;2024-02-21T10:06:38;6.90;;;2.67;;
8094;SDS011;4090;49.270;8.696;2024-02-21T10:09:21;5.32;;;2.78;;
8094;SDS011;4090;49.270;8.696;2024-02-21T10:12:07;9.35;;;2.95;;
8094;SDS011;4090;49.270;8.696;2024-02-21T10:14:51;5.43;;;2.28;;
8094;SDS011;4090;49.270;8.696;2024-02-21T10:17:43;7.63;;;2.97;;
8094;SDS011;4090;49.270;8.696;2024-02-21T10:20:24;4.30;;;2.53;;
8094;SDS011;4090;49.270;8.696;2024-02-21T10:23:06;6.80;;;2.53;;
8094;SDS011;4090;49.270;8.696;2024-02-21T10:25:49;8.30;;;2.80;;
8094;SDS011;4090;49.270;8.696;2024-02-21T10:28:31;7.28;;;2.60;;
8094;SDS011;4090;49.270;8.696;2024-02-21T10:31:21;6.43;;;2.80;;
8094;SDS011;4090;49.270;8.696;2024-02-21T10:34:05;5.75;;;2.70;;
8094;SDS011;4090;49.270;8.696;2024-02-21T10:36:49;14.68;;;2.88;;
8094;SDS011;4090;49.270;8.696;2024-02-21T10:39:41;8.95;;;2.75;;
8094;SDS011;4090;49.270;8.696;2024-02-21T10:42:26;4.88;;;2.40;;
8094;SDS011;4090;49.270;8.696;2024-02-21T10:45:12;6.60;;;2.53;;
8094;SDS011;4090;49.270;8.696;2024-02-21T10:47:55;8.60;;;2.63;;
8094;SDS011;4090;49.270;8.696;2024-02-21T10:50:50;4.18;;;2.40;;
8094;SDS011;4090;49.270;8.696;2024-02-21T10:53:40;7.13;;;2.22;;
8094;SDS011;4090;49.270;8.696;2024-02-21T10:56:28;7.65;;;2.05;;
8094;SDS011;4090;49.270;8.696;2024-02-21T10:59:11;6.63;;;2.30;;
8094;SDS011;4090;49.270;8.696;2024-02-21T11:01:54;6.20;;;2.38;;
8094;SDS011;4090;49.270;8.696;2024-02-21T11:04:37;6.35;;;2.03;;
8094;SDS011;4090;49.270;8.696;2024-02-21T11:07:21;7.43;;;1.88;;
8094;SDS011;4090;49.270;8.696;2024-02-21T11:10:03;4.32;;;1.75;;
8094;SDS011;4090;49.270;8.696;2024-02-21T11:12:47;5.07;;;2.08;;
8094;SDS011;4090;49.270;8.696;2024-02-21T11:15:29;7.85;;;2.00;;
8094;SDS011;4090;49.270;8.696;2024-02-21T11:18:11;7.07;;;1.90;;
8094;SDS011;4090;49.270;8.696;2024-02-21T11:21:04;8.93;;;2.00;;
8094;SDS011;4090;49.270;8.696;2024-02-21T11:23:55;7.55;;;1.98;;
8094;SDS011;4090;49.270;8.696;2024-02-21T11:26:38;4.70;;;2.00;;
8094;SDS011;4090;49.270;8.696;2024-02-21T11:29:25;7.90;;;2.00;;
8094;SDS011;4090;49.270;8.696;2024-02-21T11:32:09;6.45;;;2.20;;
8094;SDS011;4090;49.270;8.696;2024-02-21T11:34:55;5.63;;;2.25;;
8094;SDS011;4090;49.270;8.696;2024-02-21T11:37:41;5.18;;;2.10;;
8094;SDS011;4090;49.270;8.696;2024-02-21T11:40:27;6.63;;;2.33;;
8094;SDS011;4090;49.270;8.696;2024-02-21T11:43:09;5.28;;;2.03;;
8094;SDS011;4090;49.270;8.696;2024-02-21T11:45:58;5.22;;;1.70;;
8094;SDS011;4090;49.270;8.696;2024-02-21T11:48:41;6.30;;;1.80;;
8094;SDS011;4090;49.270;8.696;2024-02-21T11:51:24;5.93;;;2.00;;
8094;SDS011;4090;49.270;8.696;2024-02-21T11:54:07;4.78;;;1.98;;
8094;SDS011;4090;49.270;8.696;2024-02-21T11:56:51;3.53;;;1.70;;
8094;SDS011;4090;49.270;8.696;2024-02-21T11:59:33;3.00;;;1.63;;
8094;SDS011;4090;49.270;8.696;2024-02-21T12:02:15;6.93;;;1.90;;
8094;SDS011;4090;49.270;8.696;2024-02-21T12:04:58;10.50;;;2.15;;
8094;SDS011;4090;49.270;8.696;2024-02-21T12:07:40;2.95;;;1.90;;
8094;SDS011;4090;49.270;8.696;2024-02-21T12:10:23;6.30;;;2.08;;
8094;SDS011;4090;49.270;8.696;2024-02-21T12:13:07;7.55;;;1.90;;
8094;SDS011;4090;49.270;8.696;2024-02-21T12:15:49;6.22;;;2.05;;
8094;SDS011;4090;49.270;8.696;2024-02-21T12:18:31;6.93;;;1.98;;
8094;SDS011;4090;49.270;8.696;2024-02-21T12:21:13;2.92;;;1.67;;
8094;SDS011;4090;49.270;8.696;2024-02-21T12:23:57;5.80;;;1.90;;
8094;SDS011;4090;49.270;8.696;2024-02-21T12:26:39;5.70;;;1.98;;
8094;SDS011;4090;49.270;8.696;2024-02-21T12:29:23;4.82;;;1.60;;
8094;SDS011;4090;49.270;8.696;2024-02-21T12:32:05;5.00;;;1.83;;
8094;SDS011;4090;49.270;8.696;2024-02-21T12:34:47;7.50;;;1.90;;
8094;SDS011;4090;49.270;8.696;2024-02-21T12:37:29;3.28;;;1.52;;
8094;SDS011;4090;49.270;8.696;2024-02-21T12:40:11;3.85;;;2.08;;
8094;SDS011;4090;49.270;8.696;2024-02-21T12:42:54;9.23;;;1.50;;
8094;SDS011;4090;49.270;8.696;2024-02-21T12:45:38;5.50;;;1.80;;
8094;SDS011;4090;49.270;8.696;2024-02-21T12:48:20;6.88;;;1.65;;
8094;SDS011;4090;49.270;8.696;2024-02-21T12:51:03;9.40;;;1.80;;
8094;SDS011;4090;49.270;8.696;2024-02-21T12:53:45;4.03;;;1.95;;
8094;SDS011;4090;49.270;8.696;2024-02-21T12:56:27;5.03;;;1.90;;
8094;SDS011;4090;49.270;8.696;2024-02-21T12:59:11;6.10;;;2.20;;
8094;SDS011;4090;49.270;8.696;2024-02-21T13:01:55;8.45;;;1.92;;
8094;SDS011;4090;49.270;8.696;2024-02-21T13:04:37;5.28;;;2.17;;
8094;SDS011;4090;49.270;8.696;2024-02-21T13:07:21;6.43;;;1.70;;
8094;SDS011;4090;49.270;8.696;2024-02-21T13:10:04;5.82;;;1.95;;
8094;SDS011;4090;49.270;8.696;2024-02-21T13:12:46;5.22;;;1.70;;
8094;SDS011;4090;49.270;8.696;2024-02-21T13:15:28;8.15;;;2.03;;
8094;SDS011;4090;49.270;8.696;2024-02-21T13:18:12;5.15;;;1.73;;
8094;SDS011;4090;49.270;8.696;2024-02-21T13:20:54;4.15;;;1.65;;
8094;SDS011;4090;49.270;8.696;2024-02-21T13:23:36;5.45;;;1.70;;
8094;SDS011;4090;49.270;8.696;2024-02-21T13:26:18;4.13;;;1.80;;
8094;SDS011;4090;49.270;8.696;2024-02-21T13:29:00;5.40;;;1.77;;
8094;SDS011;4090;49.270;8.696;2024-02-21T13:31:43;5.30;;;1.60;;
8094;SDS011;4090;49.270;8.696;2024-02-21T13:34:27;5.60;;;2.15;;
8094;SDS011;4090;49.270;8.696;2024-02-21T13:37:09;2.58;;;1.42;;
8094;SDS011;4090;49.270;8.696;2024-02-21T13:39:51;3.72;;;1.70;;
8094;SDS011;4090;49.270;8.696;2024-02-21T13:42:33;4.68;;;2.08;;
8094;SDS011;4090;49.270;8.696;2024-02-21T13:45:14;5.50;;;1.70;;
8094;SDS011;4090;49.270;8.696;2024-02-21T13:47:57;6.40;;;2.15;;
8094;SDS011;4090;49.270;8.696;2024-02-21T13:50:41;4.93;;;1.70;;
8094;SDS011;4090;49.270;8.696;2024-02-21T13:53:23;7.28;;;1.67;;
8094;SDS011;4090;49.270;8.696;2024-02-21T13:56:05;3.22;;;1.40;;
8094;SDS011;4090;49.270;8.696;2024-02-21T13:58:49;5.28;;;1.50;;
8094;SDS011;4090;49.270;8.696;2024-02-21T14:01:32;5.85;;;1.88;;
8094;SDS011;4090;49.270;8.696;2024-02-21T14:04:13;4.68;;;1.58;;
8094;SDS011;4090;49.270;8.696;2024-02-21T14:06:57;5.75;;;1.58;;
8094;SDS011;4090;49.270;8.696;2024-02-21T14:09:39;5.82;;;1.70;;
8094;SDS011;4090;49.270;8.696;2024-02-21T14:12:21;6.35;;;1.70;;
8094;SDS011;4090;49.270;8.696;2024-02-21T14:15:04;5.28;;;1.80;;
8094;SDS011;4090;49.270;8.696;2024-02-21T14:17:46;6.05;;;1.67;;
8094;SDS011;4090;49.270;8.696;2024-02-21T14:20:28;6.65;;;1.77;;
8094;SDS011;4090;49.270;8.696;2024-02-21T14:23:12;7.55;;;2.20;;
8094;SDS011;4090;49.270;8.696;2024-02-21T14:25:54;7.35;;;1.98;;
8094;SDS011;4090;49.270;8.696;2024-02-21T14:28:36;2.65;;;1.35;;
8094;SDS011;4090;49.270;8.696;2024-02-21T14:31:18;5.63;;;1.65;;
8094;SDS011;4090;49.270;8.696;2024-02-21T14:34:00;5.95;;;1.60;;
8094;SDS011;4090;49.270;8.696;2024-02-21T14:36:42;3.28;;;1.60;;
8094;SDS011;4090;49.270;8.696;2024-02-21T14:39:25;4.50;;;1.55;;
8094;SDS011;4090;49.270;8.696;2024-02-21T14:42:07;3.88;;;1.85;;
8094;SDS011;4090;49.270;8.696;2024-02-21T14:44:50;2.88;;;1.60;;
8094;SDS011;4090;49.270;8.696;2024-02-21T14:47:32;4.80;;;1.85;;
8094;SDS011;4090;49.270;8.696;2024-02-21T14:50:14;9.75;;;2.00;;
8094;SDS011;4090;49.270;8.696;2024-02-21T14:52:56;4.88;;;1.83;;
8094;SDS011;4090;49.270;8.696;2024-02-21T14:55:40;5.93;;;1.88;;
8094;SDS011;4090;49.270;8.696;2024-02-21T14:58:22;6.40;;;1.92;;
8094;SDS011;4090;49.270;8.696;2024-02-21T15:01:04;6.28;;;1.65;;
8094;SDS011;4090;49.270;8.696;2024-02-21T15:03:46;7.32;;;2.03;;
8094;SDS011;4090;49.270;8.696;2024-02-21T15:06:28;5.07;;;2.10;;
8094;SDS011;4090;49.270;8.696;2024-02-21T15:09:12;6.82;;;1.40;;
8094;SDS011;4090;49.270;8.696;2024-02-21T15:11:55;6.13;;;1.85;;
8094;SDS011;4090;49.270;8.696;2024-02-21T15:14:37;7.15;;;2.00;;
8094;SDS011;4090;49.270;8.696;2024-02-21T15:17:19;2.47;;;1.73;;
8094;SDS011;4090;49.270;8.696;2024-02-21T15:20:01;5.60;;;2.03;;
8094;SDS011;4090;49.270;8.696;2024-02-21T15:22:45;3.95;;;1.85;;
8094;SDS011;4090;49.270;8.696;2024-02-21T15:25:27;6.32;;;2.13;;
8094;SDS011;4090;49.270;8.696;2024-02-21T15:28:12;3.40;;;1.60;;
8094;SDS011;4090;49.270;8.696;2024-02-21T15:30:54;4.90;;;2.00;;
8094;SDS011;4090;49.270;8.696;2024-02-21T15:33:37;4.05;;;1.75;;
8094;SDS011;4090;49.270;8.696;2024-02-21T15:36:19;5.63;;;1.80;;
8094;SDS011;4090;49.270;8.696;2024-02-21T15:39:01;6.47;;;1.80;;
8094;SDS011;4090;49.270;8.696;2024-02-21T15:41:43;5.85;;;1.83;;
8094;SDS011;4090;49.270;8.696;2024-02-21T15:44:26;2.92;;;1.73;;
8094;SDS011;4090;49.270;8.696;2024-02-21T15:47:08;5.18;;;1.60;;
8094;SDS011;4090;49.270;8.696;2024-02-21T15:49:50;7.63;;;2.08;;
8094;SDS011;4090;49.270;8.696;2024-02-21T15:52:33;7.28;;;1.92;;
8094;SDS011;4090;49.270;8.696;2024-02-21T15:55:16;4.20;;;1.90;;
8094;SDS011;4090;49.270;8.696;2024-02-21T15:57:58;4.20;;;2.10;;
8094;SDS011;4090;49.270;8.696;2024-02-21T16:00:41;2.97;;;2.35;;
8094;SDS011;4090;49.270;8.696;2024-02-21T16:03:23;5.55;;;1.65;;
8094;SDS011;4090;49.270;8.696;2024-02-21T16:06:05;4.60;;;1.80;;
8094;SDS011;4090;49.270;8.696;2024-02-21T16:08:47;3.15;;;1.90;;
8094;SDS011;4090;49.270;8.696;2024-02-21T16:11:30;6.63;;;2.20;;
8094;SDS011;4090;49.270;8.696;2024-02-21T16:14:12;6.85;;;2.33;;
8094;SDS011;4090;49.270;8.696;2024-02-21T16:16:56;5.18;;;2.08;;
8094;SDS011;4090;49.270;8.696;2024-02-21T16:19:38;6.72;;;2.03;;
8094;SDS011;4090;49.270;8.696;2024-02-21T16:22:20;5.03;;;2.00;;
8094;SDS011;4090;49.270;8.696;2024-02-21T16:25:02;3.85;;;2.20;;
8094;SDS011;4090;49.270;8.696;2024-02-21T16:27:45;3.95;;;1.90;;
8094;SDS011;4090;49.270;8.696;2024-02-21T16:30:27;6.10;;;2.17;;
8094;SDS011;4090;49.270;8.696;2024-02-21T16:33:11;5.07;;;2.15;;
8094;SDS011;4090;49.270;8.696;2024-02-21T16:35:53;4.10;;;1.83;;
8094;SDS011;4090;49.270;8.696;2024-02-21T16:38:35;5.22;;;2.00;;
8094;SDS011;4090;49.270;8.696;2024-02-21T16:41:20;3.78;;;1.88;;
8094;SDS011;4090;49.270;8.696;2024-02-21T16:44:02;5.35;;;1.90;;
8094;SDS011;4090;49.270;8.696;2024-02-21T16:46:44;5.47;;;2.30;;